sensor_id;sensor_type;location;lat;lon;timestamp;temperature;humidity
18103;DHT22;9178;51.120;6.192;2023-10-13T00:01:03;17.00;99.90
18103;DHT22;9178;51.120;6.192;2023-10-13T00:03:32;17.00;99.90
18103;DHT22;9178;51.120;6.192;2023-10-13T00:05:59;17.00;99.90
18103;DHT22;9178;51.120;6.192;2023-10-13T00:08:29;17.00;99.90
18103;DHT22;9178;51.120;6.192;2023-10-13T00:10:56;17.00;99.90
18103;DHT22;9178;51.120;6.192;2023-10-13T00:13:27;17.00;99.90
18103;DHT22;9178;51.120;6.192;2023-10-13T00:15:56;17.00;99.90
18103;DHT22;9178;51.120;6.192;2023-10-13T00:18:31;17.00;99.90
18103;DHT22;9178;51.120;6.192;2023-10-13T00:21:00;17.00;99.90
18103;DHT22;9178;51.120;6.192;2023-10-13T00:23:38;17.00;99.90
18103;DHT22;9178;51.120;6.192;2023-10-13T00:26:09;16.90;99.90
18103;DHT22;9178;51.120;6.192;2023-10-13T00:28:36;16.90;99.90
18103;DHT22;9178;51.120;6.192;2023-10-13T00:31:12;17.00;99.90
18103;DHT22;9178;51.120;6.192;2023-10-13T00:33:41;16.90;99.90
18103;DHT22;9178;51.120;6.192;2023-10-13T00:36:09;17.00;99.90
18103;DHT22;9178;51.120;6.192;2023-10-13T00:38:42;16.90;99.90
18103;DHT22;9178;51.120;6.192;2023-10-13T00:41:14;16.90;99.90
18103;DHT22;9178;51.120;6.192;2023-10-13T00:43:51;16.90;99.90
18103;DHT22;9178;51.120;6.192;2023-10-13T00:46:35;17.00;99.90
18103;DHT22;9178;51.120;6.192;2023-10-13T00:49:05;17.00;99.90
18103;DHT22;9178;51.120;6.192;2023-10-13T00:51:34;16.90;99.90
18103;DHT22;9178;51.120;6.192;2023-10-13T00:54:07;17.00;99.90
18103;DHT22;9178;51.120;6.192;2023-10-13T00:56:38;17.00;99.90
18103;DHT22;9178;51.120;6.192;2023-10-13T00:59:13;17.00;99.90
18103;DHT22;9178;51.120;6.192;2023-10-13T01:01:40;17.00;99.90
18103;DHT22;9178;51.120;6.192;2023-10-13T01:04:11;17.00;99.90
18103;DHT22;9178;51.120;6.192;2023-10-13T01:06:38;17.00;99.90
18103;DHT22;9178;51.120;6.192;2023-10-13T01:09:09;17.00;99.90
18103;DHT22;9178;51.120;6.192;2023-10-13T01:11:40;17.00;99.90
18103;DHT22;9178;51.120;6.192;2023-10-13T01:14:11;17.00;99.90
18103;DHT22;9178;51.120;6.192;2023-10-13T01:16:41;17.10;99.90
18103;DHT22;9178;51.120;6.192;2023-10-13T01:19:14;17.10;99.90
18103;DHT22;9178;51.120;6.192;2023-10-13T01:21:47;17.10;99.90
18103;DHT22;9178;51.120;6.192;2023-10-13T01:24:16;17.10;99.90
18103;DHT22;9178;51.120;6.192;2023-10-13T01:26:50;17.10;99.90
18103;DHT22;9178;51.120;6.192;2023-10-13T01:29:18;17.20;99.90
18103;DHT22;9178;51.120;6.192;2023-10-13T01:31:45;17.20;99.90
18103;DHT22;9178;51.120;6.192;2023-10-13T01:34:14;17.20;99.90
18103;DHT22;9178;51.120;6.192;2023-10-13T01:36:45;17.20;99.90
18103;DHT22;9178;51.120;6.192;2023-10-13T01:39:18;17.20;99.90
18103;DHT22;9178;51.120;6.192;2023-10-13T01:41:45;17.20;99.90
18103;DHT22;9178;51.120;6.192;2023-10-13T01:44:12;17.20;99.90
18103;DHT22;9178;51.120;6.192;2023-10-13T01:46:41;17.20;99.90
18103;DHT22;9178;51.120;6.192;2023-10-13T01:49:08;17.20;99.90
18103;DHT22;9178;51.120;6.192;2023-10-13T01:51:34;17.20;99.90
18103;DHT22;9178;51.120;6.192;2023-10-13T01:54:05;17.20;99.90
18103;DHT22;9178;51.120;6.192;2023-10-13T01:56:39;17.20;99.90
18103;DHT22;9178;51.120;6.192;2023-10-13T01:59:08;17.20;99.90
18103;DHT22;9178;51.120;6.192;2023-10-13T02:01:35;17.20;99.90
18103;DHT22;9178;51.120;6.192;2023-10-13T02:04:06;17.20;99.90
18103;DHT22;9178;51.120;6.192;2023-10-13T02:06:37;17.20;99.90
18103;DHT22;9178;51.120;6.192;2023-10-13T02:09:05;17.20;99.90
18103;DHT22;9178;51.120;6.192;2023-10-13T02:11:39;17.20;99.90
18103;DHT22;9178;51.120;6.192;2023-10-13T02:14:08;17.20;99.90
18103;DHT22;9178;51.120;6.192;2023-10-13T02:16:36;17.30;99.90
18103;DHT22;9178;51.120;6.192;2023-10-13T02:19:03;17.30;99.90
18103;DHT22;9178;51.120;6.192;2023-10-13T02:21:30;17.30;99.90
18103;DHT22;9178;51.120;6.192;2023-10-13T02:23:58;17.30;99.90
18103;DHT22;9178;51.120;6.192;2023-10-13T02:26:48;17.30;99.90
18103;DHT22;9178;51.120;6.192;2023-10-13T02:29:19;17.30;99.90
18103;DHT22;9178;51.120;6.192;2023-10-13T02:31:45;17.30;99.90
18103;DHT22;9178;51.120;6.192;2023-10-13T02:34:20;17.30;99.90
18103;DHT22;9178;51.120;6.192;2023-10-13T02:36:48;17.40;99.90
18103;DHT22;9178;51.120;6.192;2023-10-13T02:39:16;17.40;99.90
18103;DHT22;9178;51.120;6.192;2023-10-13T02:41:42;17.40;99.90
18103;DHT22;9178;51.120;6.192;2023-10-13T02:44:14;17.40;99.90
18103;DHT22;9178;51.120;6.192;2023-10-13T02:46:53;17.40;99.90
18103;DHT22;9178;51.120;6.192;2023-10-13T02:49:21;17.40;99.90
18103;DHT22;9178;51.120;6.192;2023-10-13T02:51:47;17.50;99.90
18103;DHT22;9178;51.120;6.192;2023-10-13T02:54:14;17.50;99.90
18103;DHT22;9178;51.120;6.192;2023-10-13T02:56:44;17.50;99.90
18103;DHT22;9178;51.120;6.192;2023-10-13T02:59:15;17.50;99.90
18103;DHT22;9178;51.120;6.192;2023-10-13T03:01:45;17.50;99.90
18103;DHT22;9178;51.120;6.192;2023-10-13T03:04:13;17.50;99.90
18103;DHT22;9178;51.120;6.192;2023-10-13T03:06:39;17.60;99.90
18103;DHT22;9178;51.120;6.192;2023-10-13T03:09:08;17.60;99.90
18103;DHT22;9178;51.120;6.192;2023-10-13T03:11:43;17.50;99.90
18103;DHT22;9178;51.120;6.192;2023-10-13T03:14:13;17.50;99.90
18103;DHT22;9178;51.120;6.192;2023-10-13T03:16:50;17.50;99.90
18103;DHT22;9178;51.120;6.192;2023-10-13T03:19:18;17.60;99.90
18103;DHT22;9178;51.120;6.192;2023-10-13T03:21:45;17.50;99.90
18103;DHT22;9178;51.120;6.192;2023-10-13T03:24:20;17.50;99.90
18103;DHT22;9178;51.120;6.192;2023-10-13T03:26:48;17.50;99.90
18103;DHT22;9178;51.120;6.192;2023-10-13T03:29:18;17.50;99.90
18103;DHT22;9178;51.120;6.192;2023-10-13T03:31:47;17.50;99.90
18103;DHT22;9178;51.120;6.192;2023-10-13T03:34:30;17.50;99.90
18103;DHT22;9178;51.120;6.192;2023-10-13T03:36:58;17.50;99.90
18103;DHT22;9178;51.120;6.192;2023-10-13T03:39:25;17.60;99.90
18103;DHT22;9178;51.120;6.192;2023-10-13T03:41:57;17.50;99.90
18103;DHT22;9178;51.120;6.192;2023-10-13T03:44:25;17.50;99.90
18103;DHT22;9178;51.120;6.192;2023-10-13T03:46:56;17.50;99.90
18103;DHT22;9178;51.120;6.192;2023-10-13T03:49:27;17.50;99.90
18103;DHT22;9178;51.120;6.192;2023-10-13T03:51:56;17.50;99.90
18103;DHT22;9178;51.120;6.192;2023-10-13T03:54:23;17.50;99.90
18103;DHT22;9178;51.120;6.192;2023-10-13T03:56:50;17.50;99.90
18103;DHT22;9178;51.120;6.192;2023-10-13T03:59:21;17.50;99.90
18103;DHT22;9178;51.120;6.192;2023-10-13T04:01:50;17.50;99.90
18103;DHT22;9178;51.120;6.192;2023-10-13T04:04:31;17.50;99.90
18103;DHT22;9178;51.120;6.192;2023-10-13T04:07:09;17.50;99.90
18103;DHT22;9178;51.120;6.192;2023-10-13T04:09:53;17.60;99.90
18103;DHT22;9178;51.120;6.192;2023-10-13T04:12:38;17.60;99.90
18103;DHT22;9178;51.120;6.192;2023-10-13T04:15:24;17.60;99.90
18103;DHT22;9178;51.120;6.192;2023-10-13T04:18:05;17.60;99.90
18103;DHT22;9178;51.120;6.192;2023-10-13T04:20:59;17.60;99.90
18103;DHT22;9178;51.120;6.192;2023-10-13T04:23:45;17.60;99.90
18103;DHT22;9178;51.120;6.192;2023-10-13T04:26:29;17.60;99.90
18103;DHT22;9178;51.120;6.192;2023-10-13T04:29:03;17.60;99.90
18103;DHT22;9178;51.120;6.192;2023-10-13T04:31:36;17.60;99.90
18103;DHT22;9178;51.120;6.192;2023-10-13T04:34:25;17.60;99.90
18103;DHT22;9178;51.120;6.192;2023-10-13T04:36:54;17.60;99.90
18103;DHT22;9178;51.120;6.192;2023-10-13T04:39:45;17.60;99.90
18103;DHT22;9178;51.120;6.192;2023-10-13T04:42:22;17.60;99.90
18103;DHT22;9178;51.120;6.192;2023-10-13T04:45:06;17.60;99.90
18103;DHT22;9178;51.120;6.192;2023-10-13T04:47:53;17.60;99.90
18103;DHT22;9178;51.120;6.192;2023-10-13T04:50:39;17.60;99.90
18103;DHT22;9178;51.120;6.192;2023-10-13T04:53:12;17.70;99.90
18103;DHT22;9178;51.120;6.192;2023-10-13T04:55:55;17.60;99.90
18103;DHT22;9178;51.120;6.192;2023-10-13T04:58:56;17.60;99.90
18103;DHT22;9178;51.120;6.192;2023-10-13T05:01:40;17.70;99.90
18103;DHT22;9178;51.120;6.192;2023-10-13T05:04:21;17.70;99.90
18103;DHT22;9178;51.120;6.192;2023-10-13T05:06:56;17.70;99.90
18103;DHT22;9178;51.120;6.192;2023-10-13T05:09:41;17.70;99.90
18103;DHT22;9178;51.120;6.192;2023-10-13T05:12:26;17.70;99.90
18103;DHT22;9178;51.120;6.192;2023-10-13T05:15:11;17.70;99.90
18103;DHT22;9178;51.120;6.192;2023-10-13T05:17:55;17.70;99.90
18103;DHT22;9178;51.120;6.192;2023-10-13T05:20:40;17.60;99.90
18103;DHT22;9178;51.120;6.192;2023-10-13T05:23:24;17.70;99.90
18103;DHT22;9178;51.120;6.192;2023-10-13T05:26:09;17.70;99.90
18103;DHT22;9178;51.120;6.192;2023-10-13T05:28:54;17.70;99.90
18103;DHT22;9178;51.120;6.192;2023-10-13T05:31:39;17.70;99.90
18103;DHT22;9178;51.120;6.192;2023-10-13T05:34:23;17.70;99.90
18103;DHT22;9178;51.120;6.192;2023-10-13T05:37:07;17.70;99.90
18103;DHT22;9178;51.120;6.192;2023-10-13T05:39:53;17.70;99.90
18103;DHT22;9178;51.120;6.192;2023-10-13T05:42:38;17.70;99.90
18103;DHT22;9178;51.120;6.192;2023-10-13T05:45:23;17.70;99.90
18103;DHT22;9178;51.120;6.192;2023-10-13T05:48:03;17.70;99.90
18103;DHT22;9178;51.120;6.192;2023-10-13T05:50:38;17.70;99.90
18103;DHT22;9178;51.120;6.192;2023-10-13T05:53:45;17.70;99.90
18103;DHT22;9178;51.120;6.192;2023-10-13T05:56:29;17.70;99.90
18103;DHT22;9178;51.120;6.192;2023-10-13T05:59:14;17.70;99.90
18103;DHT22;9178;51.120;6.192;2023-10-13T06:01:59;17.70;99.90
18103;DHT22;9178;51.120;6.192;2023-10-13T06:04:44;17.70;99.90
18103;DHT22;9178;51.120;6.192;2023-10-13T06:07:28;17.70;99.90
18103;DHT22;9178;51.120;6.192;2023-10-13T06:10:12;17.70;99.90
18103;DHT22;9178;51.120;6.192;2023-10-13T06:12:57;17.70;99.90
18103;DHT22;9178;51.120;6.192;2023-10-13T06:15:41;17.70;99.90
18103;DHT22;9178;51.120;6.192;2023-10-13T06:18:30;17.70;99.90
18103;DHT22;9178;51.120;6.192;2023-10-13T06:21:14;17.70;99.90
18103;DHT22;9178;51.120;6.192;2023-10-13T06:23:58;17.80;99.90
18103;DHT22;9178;51.120;6.192;2023-10-13T06:26:43;17.70;99.90
18103;DHT22;9178;51.120;6.192;2023-10-13T06:29:28;17.70;99.90
18103;DHT22;9178;51.120;6.192;2023-10-13T06:31:56;17.70;99.90
18103;DHT22;9178;51.120;6.192;2023-10-13T06:34:25;17.80;99.90
18103;DHT22;9178;51.120;6.192;2023-10-13T06:37:04;17.80;99.90
18103;DHT22;9178;51.120;6.192;2023-10-13T06:39:51;17.80;99.90
18103;DHT22;9178;51.120;6.192;2023-10-13T06:42:19;17.80;99.90
18103;DHT22;9178;51.120;6.192;2023-10-13T06:44:47;17.80;99.90
18103;DHT22;9178;51.120;6.192;2023-10-13T06:47:14;17.80;99.90
18103;DHT22;9178;51.120;6.192;2023-10-13T06:49:42;17.90;99.90
18103;DHT22;9178;51.120;6.192;2023-10-13T06:52:09;17.90;99.90
18103;DHT22;9178;51.120;6.192;2023-10-13T06:54:40;17.90;99.90
18103;DHT22;9178;51.120;6.192;2023-10-13T06:57:08;17.90;99.90
18103;DHT22;9178;51.120;6.192;2023-10-13T06:59:40;18.00;99.90
18103;DHT22;9178;51.120;6.192;2023-10-13T07:02:08;18.00;99.90
18103;DHT22;9178;51.120;6.192;2023-10-13T07:04:50;18.00;99.90
18103;DHT22;9178;51.120;6.192;2023-10-13T07:07:22;18.00;99.90
18103;DHT22;9178;51.120;6.192;2023-10-13T07:09:50;18.00;99.90
18103;DHT22;9178;51.120;6.192;2023-10-13T07:12:24;18.00;99.90
18103;DHT22;9178;51.120;6.192;2023-10-13T07:15:01;18.10;99.90
18103;DHT22;9178;51.120;6.192;2023-10-13T07:17:30;18.10;99.90
18103;DHT22;9178;51.120;6.192;2023-10-13T07:20:07;18.10;99.90
18103;DHT22;9178;51.120;6.192;2023-10-13T07:22:42;18.10;99.90
18103;DHT22;9178;51.120;6.192;2023-10-13T07:25:22;18.20;99.90
18103;DHT22;9178;51.120;6.192;2023-10-13T07:27:51;18.30;99.90
18103;DHT22;9178;51.120;6.192;2023-10-13T07:30:19;18.30;99.90
18103;DHT22;9178;51.120;6.192;2023-10-13T07:32:52;18.40;99.90
18103;DHT22;9178;51.120;6.192;2023-10-13T07:35:25;18.50;99.90
18103;DHT22;9178;51.120;6.192;2023-10-13T07:37:57;18.50;99.90
18103;DHT22;9178;51.120;6.192;2023-10-13T07:40:26;18.50;99.90
18103;DHT22;9178;51.120;6.192;2023-10-13T07:43:11;18.60;99.90
18103;DHT22;9178;51.120;6.192;2023-10-13T07:45:39;18.60;99.90
18103;DHT22;9178;51.120;6.192;2023-10-13T07:48:08;18.70;99.90
18103;DHT22;9178;51.120;6.192;2023-10-13T07:50:47;18.80;99.90
18103;DHT22;9178;51.120;6.192;2023-10-13T07:53:14;18.80;99.90
18103;DHT22;9178;51.120;6.192;2023-10-13T07:55:49;18.80;99.90
18103;DHT22;9178;51.120;6.192;2023-10-13T07:58:21;18.90;99.90
18103;DHT22;9178;51.120;6.192;2023-10-13T08:00:50;18.90;99.90
18103;DHT22;9178;51.120;6.192;2023-10-13T08:03:32;19.00;99.90
18103;DHT22;9178;51.120;6.192;2023-10-13T08:06:11;19.00;99.90
18103;DHT22;9178;51.120;6.192;2023-10-13T08:08:52;19.10;99.90
18103;DHT22;9178;51.120;6.192;2023-10-13T08:11:34;19.20;99.90
18103;DHT22;9178;51.120;6.192;2023-10-13T08:14:04;19.10;99.90
18103;DHT22;9178;51.120;6.192;2023-10-13T08:16:48;19.20;99.90
18103;DHT22;9178;51.120;6.192;2023-10-13T08:19:29;19.10;99.90
18103;DHT22;9178;51.120;6.192;2023-10-13T08:22:07;19.10;99.90
18103;DHT22;9178;51.120;6.192;2023-10-13T08:24:48;19.10;99.90
18103;DHT22;9178;51.120;6.192;2023-10-13T08:27:40;19.10;99.90
18103;DHT22;9178;51.120;6.192;2023-10-13T08:30:16;19.10;99.90
18103;DHT22;9178;51.120;6.192;2023-10-13T08:32:56;19.20;99.90
18103;DHT22;9178;51.120;6.192;2023-10-13T08:35:42;19.20;99.90
18103;DHT22;9178;51.120;6.192;2023-10-13T08:38:21;19.30;99.90
18103;DHT22;9178;51.120;6.192;2023-10-13T08:40:58;19.30;99.90
18103;DHT22;9178;51.120;6.192;2023-10-13T08:43:43;19.30;99.90
18103;DHT22;9178;51.120;6.192;2023-10-13T08:46:17;19.30;99.90
18103;DHT22;9178;51.120;6.192;2023-10-13T08:48:56;19.40;99.90
18103;DHT22;9178;51.120;6.192;2023-10-13T08:51:42;19.30;99.90
18103;DHT22;9178;51.120;6.192;2023-10-13T08:54:17;19.30;99.90
18103;DHT22;9178;51.120;6.192;2023-10-13T08:56:59;19.30;99.90
18103;DHT22;9178;51.120;6.192;2023-10-13T08:59:32;19.30;99.90
18103;DHT22;9178;51.120;6.192;2023-10-13T09:02:15;19.40;99.90
18103;DHT22;9178;51.120;6.192;2023-10-13T09:04:42;19.40;99.90
18103;DHT22;9178;51.120;6.192;2023-10-13T09:07:11;19.50;99.90
18103;DHT22;9178;51.120;6.192;2023-10-13T09:09:50;19.50;99.90
18103;DHT22;9178;51.120;6.192;2023-10-13T09:12:37;19.60;99.90
18103;DHT22;9178;51.120;6.192;2023-10-13T09:15:07;19.60;99.90
18103;DHT22;9178;51.120;6.192;2023-10-13T09:17:48;19.60;99.90
18103;DHT22;9178;51.120;6.192;2023-10-13T09:20:17;19.70;99.90
18103;DHT22;9178;51.120;6.192;2023-10-13T09:22:59;19.80;99.90
18103;DHT22;9178;51.120;6.192;2023-10-13T09:25:36;19.80;99.90
18103;DHT22;9178;51.120;6.192;2023-10-13T09:28:10;20.00;99.90
18103;DHT22;9178;51.120;6.192;2023-10-13T09:30:44;20.10;99.90
18103;DHT22;9178;51.120;6.192;2023-10-13T09:33:11;20.10;99.90
18103;DHT22;9178;51.120;6.192;2023-10-13T09:35:43;20.30;99.90
18103;DHT22;9178;51.120;6.192;2023-10-13T09:38:15;20.40;99.90
18103;DHT22;9178;51.120;6.192;2023-10-13T09:40:43;20.50;99.90
18103;DHT22;9178;51.120;6.192;2023-10-13T09:43:17;20.60;99.90
18103;DHT22;9178;51.120;6.192;2023-10-13T09:45:47;20.70;99.90
18103;DHT22;9178;51.120;6.192;2023-10-13T09:48:32;20.80;99.90
18103;DHT22;9178;51.120;6.192;2023-10-13T09:51:02;20.90;99.90
18103;DHT22;9178;51.120;6.192;2023-10-13T09:53:30;20.90;99.90
18103;DHT22;9178;51.120;6.192;2023-10-13T09:56:11;20.90;99.90
18103;DHT22;9178;51.120;6.192;2023-10-13T09:58:47;20.90;99.90
18103;DHT22;9178;51.120;6.192;2023-10-13T10:01:19;20.90;99.90
18103;DHT22;9178;51.120;6.192;2023-10-13T10:04:08;21.00;99.90
18103;DHT22;9178;51.120;6.192;2023-10-13T10:06:35;21.00;99.90
18103;DHT22;9178;51.120;6.192;2023-10-13T10:09:17;21.10;99.90
18103;DHT22;9178;51.120;6.192;2023-10-13T10:12:01;21.20;99.90
18103;DHT22;9178;51.120;6.192;2023-10-13T10:14:46;21.20;99.90
18103;DHT22;9178;51.120;6.192;2023-10-13T10:17:22;21.30;99.90
18103;DHT22;9178;51.120;6.192;2023-10-13T10:19:56;21.30;99.90
18103;DHT22;9178;51.120;6.192;2023-10-13T10:22:30;21.40;99.90
18103;DHT22;9178;51.120;6.192;2023-10-13T10:24:59;21.40;99.90
18103;DHT22;9178;51.120;6.192;2023-10-13T10:27:30;21.40;99.90
18103;DHT22;9178;51.120;6.192;2023-10-13T10:29:58;21.40;99.90
18103;DHT22;9178;51.120;6.192;2023-10-13T10:32:35;21.40;99.90
18103;DHT22;9178;51.120;6.192;2023-10-13T10:35:07;21.50;99.90
18103;DHT22;9178;51.120;6.192;2023-10-13T10:37:45;21.50;99.90
18103;DHT22;9178;51.120;6.192;2023-10-13T10:40:15;21.70;99.90
18103;DHT22;9178;51.120;6.192;2023-10-13T10:43:00;21.70;99.90
18103;DHT22;9178;51.120;6.192;2023-10-13T10:45:31;21.80;99.90
18103;DHT22;9178;51.120;6.192;2023-10-13T10:47:59;21.80;99.90
18103;DHT22;9178;51.120;6.192;2023-10-13T10:50:42;21.90;99.90
18103;DHT22;9178;51.120;6.192;2023-10-13T10:53:13;21.90;99.90
18103;DHT22;9178;51.120;6.192;2023-10-13T10:55:42;22.00;99.90
18103;DHT22;9178;51.120;6.192;2023-10-13T10:58:13;22.00;99.90
18103;DHT22;9178;51.120;6.192;2023-10-13T11:01:05;22.10;99.90
18103;DHT22;9178;51.120;6.192;2023-10-13T11:03:36;22.20;99.90
18103;DHT22;9178;51.120;6.192;2023-10-13T11:06:12;22.20;99.90
18103;DHT22;9178;51.120;6.192;2023-10-13T11:08:45;22.20;99.90
18103;DHT22;9178;51.120;6.192;2023-10-13T11:11:28;22.20;99.90
18103;DHT22;9178;51.120;6.192;2023-10-13T11:13:58;22.20;99.90
18103;DHT22;9178;51.120;6.192;2023-10-13T11:16:45;22.20;99.90
18103;DHT22;9178;51.120;6.192;2023-10-13T11:19:17;22.20;99.90
18103;DHT22;9178;51.120;6.192;2023-10-13T11:21:52;22.30;99.90
18103;DHT22;9178;51.120;6.192;2023-10-13T11:24:21;22.30;99.90
18103;DHT22;9178;51.120;6.192;2023-10-13T11:26:49;22.30;99.90
18103;DHT22;9178;51.120;6.192;2023-10-13T11:29:19;22.40;99.90
18103;DHT22;9178;51.120;6.192;2023-10-13T11:31:57;22.60;99.90
18103;DHT22;9178;51.120;6.192;2023-10-13T11:34:25;22.70;99.90
18103;DHT22;9178;51.120;6.192;2023-10-13T11:37:05;22.70;99.90
18103;DHT22;9178;51.120;6.192;2023-10-13T11:39:46;22.90;99.90
18103;DHT22;9178;51.120;6.192;2023-10-13T11:42:13;22.90;99.90
18103;DHT22;9178;51.120;6.192;2023-10-13T11:44:44;23.00;99.90
18103;DHT22;9178;51.120;6.192;2023-10-13T11:47:11;23.00;99.90
18103;DHT22;9178;51.120;6.192;2023-10-13T11:49:58;23.00;99.90
18103;DHT22;9178;51.120;6.192;2023-10-13T11:52:25;23.00;99.90
18103;DHT22;9178;51.120;6.192;2023-10-13T11:54:55;22.90;99.90
18103;DHT22;9178;51.120;6.192;2023-10-13T11:57:23;22.90;99.90
18103;DHT22;9178;51.120;6.192;2023-10-13T11:59:51;22.80;99.90
18103;DHT22;9178;51.120;6.192;2023-10-13T12:02:41;22.80;99.90
18103;DHT22;9178;51.120;6.192;2023-10-13T12:05:25;22.80;99.90
18103;DHT22;9178;51.120;6.192;2023-10-13T12:08:04;22.80;99.90
18103;DHT22;9178;51.120;6.192;2023-10-13T12:10:35;22.80;99.90
18103;DHT22;9178;51.120;6.192;2023-10-13T12:13:04;22.80;99.90
18103;DHT22;9178;51.120;6.192;2023-10-13T12:15:37;22.90;99.90
18103;DHT22;9178;51.120;6.192;2023-10-13T12:18:15;22.90;99.90
18103;DHT22;9178;51.120;6.192;2023-10-13T12:20:42;22.90;99.90
18103;DHT22;9178;51.120;6.192;2023-10-13T12:23:12;23.00;99.90
18103;DHT22;9178;51.120;6.192;2023-10-13T12:25:53;23.00;99.90
18103;DHT22;9178;51.120;6.192;2023-10-13T12:28:26;23.00;99.90
18103;DHT22;9178;51.120;6.192;2023-10-13T12:31:03;22.90;99.90
18103;DHT22;9178;51.120;6.192;2023-10-13T12:33:33;22.90;99.90
18103;DHT22;9178;51.120;6.192;2023-10-13T12:36:08;22.80;99.90
18103;DHT22;9178;51.120;6.192;2023-10-13T12:38:41;22.80;99.90
18103;DHT22;9178;51.120;6.192;2023-10-13T12:41:26;22.70;99.90
18103;DHT22;9178;51.120;6.192;2023-10-13T12:44:11;22.70;99.90
18103;DHT22;9178;51.120;6.192;2023-10-13T12:46:59;22.60;99.90
18103;DHT22;9178;51.120;6.192;2023-10-13T12:49:43;22.50;99.90
18103;DHT22;9178;51.120;6.192;2023-10-13T12:52:25;22.60;99.90
18103;DHT22;9178;51.120;6.192;2023-10-13T12:54:53;22.60;99.90
18103;DHT22;9178;51.120;6.192;2023-10-13T12:57:31;22.80;99.90
18103;DHT22;9178;51.120;6.192;2023-10-13T12:59:59;22.90;99.90
18103;DHT22;9178;51.120;6.192;2023-10-13T13:02:28;23.00;99.90
18103;DHT22;9178;51.120;6.192;2023-10-13T13:04:56;23.00;99.90
18103;DHT22;9178;51.120;6.192;2023-10-13T13:07:31;22.90;99.90
18103;DHT22;9178;51.120;6.192;2023-10-13T13:10:09;22.90;99.90
18103;DHT22;9178;51.120;6.192;2023-10-13T13:12:37;22.80;99.90
18103;DHT22;9178;51.120;6.192;2023-10-13T13:15:05;22.80;99.90
18103;DHT22;9178;51.120;6.192;2023-10-13T13:17:36;22.70;99.90
18103;DHT22;9178;51.120;6.192;2023-10-13T13:20:05;22.70;99.90
18103;DHT22;9178;51.120;6.192;2023-10-13T13:22:38;22.60;99.90
18103;DHT22;9178;51.120;6.192;2023-10-13T13:25:05;22.60;99.90
18103;DHT22;9178;51.120;6.192;2023-10-13T13:27:36;22.50;99.90
18103;DHT22;9178;51.120;6.192;2023-10-13T13:30:11;22.50;99.90
18103;DHT22;9178;51.120;6.192;2023-10-13T13:32:40;22.50;99.90
18103;DHT22;9178;51.120;6.192;2023-10-13T13:35:07;22.50;99.90
18103;DHT22;9178;51.120;6.192;2023-10-13T13:37:39;22.50;99.90
18103;DHT22;9178;51.120;6.192;2023-10-13T13:40:16;22.40;99.90
18103;DHT22;9178;51.120;6.192;2023-10-13T13:42:47;22.40;99.90
18103;DHT22;9178;51.120;6.192;2023-10-13T13:45:14;22.30;99.90
18103;DHT22;9178;51.120;6.192;2023-10-13T13:47:48;22.30;99.90
18103;DHT22;9178;51.120;6.192;2023-10-13T13:50:22;22.20;99.90
18103;DHT22;9178;51.120;6.192;2023-10-13T13:52:53;22.20;99.90
18103;DHT22;9178;51.120;6.192;2023-10-13T13:55:22;22.20;99.90
18103;DHT22;9178;51.120;6.192;2023-10-13T13:57:49;22.10;99.90
18103;DHT22;9178;51.120;6.192;2023-10-13T14:00:17;22.10;99.90
18103;DHT22;9178;51.120;6.192;2023-10-13T14:02:50;22.10;99.90
18103;DHT22;9178;51.120;6.192;2023-10-13T14:05:17;22.00;99.90
18103;DHT22;9178;51.120;6.192;2023-10-13T14:07:45;21.90;99.90
18103;DHT22;9178;51.120;6.192;2023-10-13T14:10:16;21.90;99.90
18103;DHT22;9178;51.120;6.192;2023-10-13T14:12:59;21.80;99.90
18103;DHT22;9178;51.120;6.192;2023-10-13T14:15:33;21.70;99.90
18103;DHT22;9178;51.120;6.192;2023-10-13T14:18:07;21.70;99.90
18103;DHT22;9178;51.120;6.192;2023-10-13T14:20:40;21.60;99.90
18103;DHT22;9178;51.120;6.192;2023-10-13T14:23:08;21.60;99.90
18103;DHT22;9178;51.120;6.192;2023-10-13T14:25:38;21.50;99.90
18103;DHT22;9178;51.120;6.192;2023-10-13T14:28:10;21.50;99.90
18103;DHT22;9178;51.120;6.192;2023-10-13T14:30:43;21.40;99.90
18103;DHT22;9178;51.120;6.192;2023-10-13T14:33:12;21.40;99.90
18103;DHT22;9178;51.120;6.192;2023-10-13T14:35:39;21.30;99.90
18103;DHT22;9178;51.120;6.192;2023-10-13T14:38:06;21.30;99.90
18103;DHT22;9178;51.120;6.192;2023-10-13T14:40:33;21.30;99.90
18103;DHT22;9178;51.120;6.192;2023-10-13T14:43:00;21.30;99.90
18103;DHT22;9178;51.120;6.192;2023-10-13T14:45:30;21.30;99.90
18103;DHT22;9178;51.120;6.192;2023-10-13T14:47:59;21.20;99.90
18103;DHT22;9178;51.120;6.192;2023-10-13T14:50:28;21.20;99.90
18103;DHT22;9178;51.120;6.192;2023-10-13T14:52:59;21.20;99.90
18103;DHT22;9178;51.120;6.192;2023-10-13T14:55:29;21.20;99.90
18103;DHT22;9178;51.120;6.192;2023-10-13T14:58:03;21.10;99.90
18103;DHT22;9178;51.120;6.192;2023-10-13T15:00:33;21.10;99.90
18103;DHT22;9178;51.120;6.192;2023-10-13T15:03:01;21.10;99.90
18103;DHT22;9178;51.120;6.192;2023-10-13T15:05:32;21.10;99.90
18103;DHT22;9178;51.120;6.192;2023-10-13T15:08:01;21.10;99.90
18103;DHT22;9178;51.120;6.192;2023-10-13T15:10:32;21.10;99.90
18103;DHT22;9178;51.120;6.192;2023-10-13T15:13:01;21.10;99.90
18103;DHT22;9178;51.120;6.192;2023-10-13T15:15:28;21.00;99.90
18103;DHT22;9178;51.120;6.192;2023-10-13T15:17:57;21.00;99.90
18103;DHT22;9178;51.120;6.192;2023-10-13T15:20:26;20.90;99.90
18103;DHT22;9178;51.120;6.192;2023-10-13T15:22:54;20.90;99.90
18103;DHT22;9178;51.120;6.192;2023-10-13T15:25:25;20.90;99.90
18103;DHT22;9178;51.120;6.192;2023-10-13T15:28:00;20.90;99.90
18103;DHT22;9178;51.120;6.192;2023-10-13T15:30:29;20.90;99.90
18103;DHT22;9178;51.120;6.192;2023-10-13T15:33:10;20.80;99.90
18103;DHT22;9178;51.120;6.192;2023-10-13T15:35:38;20.80;99.90
18103;DHT22;9178;51.120;6.192;2023-10-13T15:38:12;20.80;99.90
18103;DHT22;9178;51.120;6.192;2023-10-13T15:40:41;20.80;99.90
18103;DHT22;9178;51.120;6.192;2023-10-13T15:43:09;20.70;99.90
18103;DHT22;9178;51.120;6.192;2023-10-13T15:45:36;20.70;99.90
18103;DHT22;9178;51.120;6.192;2023-10-13T15:48:08;20.60;99.90
18103;DHT22;9178;51.120;6.192;2023-10-13T15:50:36;20.60;99.90
18103;DHT22;9178;51.120;6.192;2023-10-13T15:53:06;20.60;99.90
18103;DHT22;9178;51.120;6.192;2023-10-13T15:55:36;20.60;99.90
18103;DHT22;9178;51.120;6.192;2023-10-13T15:58:04;20.50;99.90
18103;DHT22;9178;51.120;6.192;2023-10-13T16:00:34;20.50;99.90
18103;DHT22;9178;51.120;6.192;2023-10-13T16:03:01;20.60;99.90
18103;DHT22;9178;51.120;6.192;2023-10-13T16:05:36;20.60;99.90
18103;DHT22;9178;51.120;6.192;2023-10-13T16:08:06;20.50;99.90
18103;DHT22;9178;51.120;6.192;2023-10-13T16:10:38;20.50;99.90
18103;DHT22;9178;51.120;6.192;2023-10-13T16:13:05;20.50;99.90
18103;DHT22;9178;51.120;6.192;2023-10-13T16:15:40;20.40;99.90
18103;DHT22;9178;51.120;6.192;2023-10-13T16:18:08;20.40;99.90
18103;DHT22;9178;51.120;6.192;2023-10-13T16:20:35;20.30;99.90
18103;DHT22;9178;51.120;6.192;2023-10-13T16:23:02;20.30;99.90
18103;DHT22;9178;51.120;6.192;2023-10-13T16:25:31;20.30;99.90
18103;DHT22;9178;51.120;6.192;2023-10-13T16:27:59;20.30;99.90